Главная страница
METAR-TAF:

METAR-TAF

Аэропорты :

Сочи, Россия

широта: 43-26N, долгота: 039-54E, высота над уровнем моря: 16 м

Текущие метеонаблюдения

Эта сводка был подготовлена 18 минут назад, в 01:30 UTC
Ветер 10 Узел от северо-восточный
Температура 15°C
Влажность 82%
Давление 1021 hPa
Видимость 10 км и более

METAR: URSS 160130Z 04005MPS 9999 NSC 15/12 Q1021 R02/090070 R06/090070 NOSIG RMK R06/00000MPS QFE764

Время: 04:48 (01:48 UTC)

Прогноз

Эта сводка был подготовлена 2 часа и 51 минут назад, в 22:57 UTC
Прогноз действительный с 16-го 00 UTC до 16-го 24 UTC
Ветер 12 Узел от северо-восточный
Видимость 10 км и более
Отдельные облака на высоте 10000 фута
изменения
С 16-го 08 UTC до 16-го 09 UTC
Ветер 10 Узел от западный с порывами до 19 Узел
изменения
С 16-го 15 UTC до 16-го 17 UTC
Ветер 12 Узел от северо-восточный

TAF: URSS 152257Z 1600/1624 05006MPS 9999 SCT100 BECMG 1608/1609 27005G10MPS BECMG 1615/1617 05006MPS

Метеонаблюдения и прогнозы для более 4000 аэропортов (сводки METAR и TAF).

Имеющиеся станции представлены на карте желтыми и красными точками.

Чтобы увидеть название станции, наведите на нее мышь.

Затем щелкните, чтобы увидеть метеонаблюдения и метеопрогнозы.

Управление картой: чтобы увеличить масштаб, щелкните зеленые кнопки с черным крестиком; чтобы уменьшить масштаб, щелкните зеленую кнопку с тире; для просмотра соседних карт щелкайте зеленые стрелки.


METAR-TAF: